Time,TemperatureF,DewpointF,PressureIn,WindDirection,WindDirectionDegrees,WindSpeedMPH,WindSpeedGustMPH,Humidity,HourlyPrecipIn,Conditions,Clouds,dailyrainin,SolarRadiationWatts/m^2,SoftwareType,DateUTC
2013-02-13 00:01:00,18.0,17.0,-100.00,NNW,330,2.0,4.0,94,0.00,,,0.00,0.000000,,2013-02-13 09:01:00,
2013-02-13 00:11:00,18.0,17.0,-100.00,NNW,330,2.0,4.0,94,0.00,,,0.00,0.000000,,2013-02-13 09:11:00,
2013-02-13 00:21:00,18.0,17.0,-100.00,NNW,330,2.0,4.0,94,0.00,,,0.00,0.000000,,2013-02-13 09:21:00,
2013-02-13 00:31:00,18.0,17.0,-100.00,NNW,330,2.0,4.0,94,0.00,,,0.00,0.000000,,2013-02-13 09:31:00,
2013-02-13 00:52:00,18.0,17.0,-100.00,NNW,328,3.0,7.0,94,0.00,,,0.00,0.000000,,2013-02-13 09:52:00,
2013-02-13 01:01:00,18.0,17.0,-100.00,NNW,328,3.0,7.0,94,0.00,,,0.00,0.000000,,2013-02-13 10:01:00,
2013-02-13 01:11:00,18.0,17.0,-100.00,NNW,328,3.0,7.0,94,0.00,,,0.00,0.000000,,2013-02-13 10:11:00,
2013-02-13 01:21:00,18.0,17.0,-100.00,NNW,328,3.0,7.0,94,0.00,,,0.00,0.000000,,2013-02-13 10:21:00,
2013-02-13 01:31:00,18.0,17.0,-100.00,NNW,328,3.0,7.0,94,0.00,,,0.00,0.000000,,2013-02-13 10:31:00,
2013-02-13 01:52:00,18.0,17.0,-100.00,North,2,3.0,5.0,94,0.00,,,0.00,0.000000,,2013-02-13 10:52:00,
2013-02-13 02:01:00,18.0,17.0,-100.00,North,2,3.0,5.0,94,0.00,,,0.00,0.000000,,2013-02-13 11:01:00,
2013-02-13 02:11:00,18.0,17.0,-100.00,North,2,3.0,5.0,94,0.00,,,0.00,0.000000,,2013-02-13 11:11:00,
2013-02-13 02:22:00,18.0,17.0,-100.00,North,2,3.0,5.0,94,0.00,,,0.00,0.000000,,2013-02-13 11:22:00,
2013-02-13 02:31:00,18.0,17.0,-100.00,North,2,3.0,5.0,94,0.00,,,0.00,0.000000,,2013-02-13 11:31:00,
2013-02-13 02:52:00,18.0,17.0,-100.00,NNW,333,2.0,4.0,94,0.00,,,0.00,0.000000,,2013-02-13 11:52:00,
2013-02-13 03:02:00,18.0,17.0,-100.00,NNW,333,2.0,4.0,94,0.00,,,0.00,0.000000,,2013-02-13 12:02:00,
2013-02-13 03:11:00,18.0,17.0,-100.00,NNW,333,2.0,4.0,94,0.00,,,0.00,0.000000,,2013-02-13 12:11:00,
2013-02-13 03:21:00,18.0,17.0,-100.00,NNW,333,2.0,4.0,94,0.00,,,0.00,0.000000,,2013-02-13 12:21:00,
2013-02-13 03:31:00,18.0,17.0,-100.00,NNW,333,2.0,4.0,94,0.00,,,0.00,0.000000,,2013-02-13 12:31:00,
2013-02-13 03:52:00,18.0,17.0,-100.00,NW,315,1.0,6.0,94,0.00,,,0.00,0.000000,,2013-02-13 12:52:00,
2013-02-13 04:02:00,18.0,17.0,-100.00,NW,315,1.0,6.0,94,0.00,,,0.00,0.000000,,2013-02-13 13:02:00,
2013-02-13 04:11:00,18.0,17.0,-100.00,NW,315,1.0,6.0,94,0.00,,,0.00,0.000000,,2013-02-13 13:11:00,
2013-02-13 04:52:00,19.0,18.0,-100.00,WNW,298,4.0,10.0,94,0.00,,,-99.99,0.000000,,2013-02-13 13:52:00,
2013-02-13 05:01:00,19.0,18.0,-100.00,WNW,298,4.0,10.0,94,0.00,,,-99.99,0.000000,,2013-02-13 14:01:00,
2013-02-13 05:11:00,19.0,18.0,-100.00,WNW,298,4.0,10.0,94,0.00,,,-99.99,0.000000,,2013-02-13 14:11:00,
2013-02-13 05:52:00,20.0,19.0,-100.00,NNW,333,3.0,6.0,94,0.00,,,0.00,0.000000,,2013-02-13 14:52:00,
2013-02-13 06:01:00,20.0,19.0,-100.00,NNW,333,3.0,6.0,94,0.00,,,0.00,0.000000,,2013-02-13 15:01:00,
2013-02-13 06:11:00,20.0,19.0,-100.00,NNW,333,3.0,6.0,94,0.00,,,0.00,0.000000,,2013-02-13 15:11:00,
2013-02-13 06:21:00,20.0,19.0,-100.00,NNW,333,3.0,6.0,94,0.00,,,0.00,0.000000,,2013-02-13 15:21:00,
2013-02-13 06:31:00,20.0,19.0,-100.00,NNW,333,3.0,6.0,94,0.00,,,0.00,0.000000,,2013-02-13 15:31:00,
2013-02-13 06:52:00,21.0,20.0,-100.00,NNE,23,7.0,13.0,94,0.00,,,0.00,0.000000,,2013-02-13 15:52:00,
2013-02-13 07:01:00,21.0,20.0,-100.00,NNE,23,7.0,13.0,94,0.00,,,0.00,0.000000,,2013-02-13 16:01:00,
2013-02-13 07:11:00,21.0,20.0,-100.00,NNE,23,7.0,13.0,94,0.00,,,0.00,0.000000,,2013-02-13 16:11:00,
2013-02-13 07:21:00,21.0,20.0,-100.00,NNE,23,7.0,13.0,94,0.00,,,0.00,0.000000,,2013-02-13 16:21:00,
2013-02-13 07:31:00,21.0,20.0,-100.00,NNE,23,7.0,13.0,94,0.00,,,0.00,0.000000,,2013-02-13 16:31:00,
2013-02-13 07:52:00,21.0,20.0,-100.00,NE,34,7.0,11.0,94,0.00,,,-99.99,0.000000,,2013-02-13 16:52:00,
2013-02-13 08:01:00,21.0,20.0,-100.00,NE,34,7.0,11.0,94,0.00,,,-99.99,0.000000,,2013-02-13 17:01:00,
2013-02-13 08:11:00,21.0,20.0,-100.00,NE,34,7.0,11.0,94,0.00,,,-99.99,0.000000,,2013-02-13 17:11:00,
2013-02-13 08:21:00,21.0,20.0,-100.00,NE,34,7.0,11.0,94,0.00,,,-99.99,0.000000,,2013-02-13 17:21:00,
2013-02-13 08:31:00,21.0,20.0,-100.00,NE,34,7.0,11.0,94,0.00,,,-99.99,0.000000,,2013-02-13 17:31:00,
2013-02-13 08:52:00,20.0,18.0,-100.00,NNW,335,3.0,8.0,93,0.00,,,0.00,0.000000,,2013-02-13 17:52:00,
2013-02-13 09:01:00,20.0,18.0,-100.00,NNW,335,3.0,8.0,93,0.00,,,0.00,0.000000,,2013-02-13 18:01:00,
2013-02-13 09:11:00,20.0,18.0,-100.00,NNW,335,3.0,8.0,93,0.00,,,0.00,0.000000,,2013-02-13 18:11:00,
2013-02-13 09:22:00,20.0,18.0,-100.00,NNW,335,3.0,8.0,93,0.00,,,0.00,0.000000,,2013-02-13 18:22:00,
2013-02-13 09:31:00,20.0,18.0,-100.00,NNW,335,3.0,8.0,93,0.00,,,0.00,0.000000,,2013-02-13 18:31:00,
2013-02-13 09:52:00,20.0,18.0,-100.00,WNW,299,3.0,6.0,93,0.00,,,0.00,40.000000,,2013-02-13 18:52:00,
2013-02-13 10:01:00,20.0,18.0,-100.00,WNW,299,3.0,6.0,93,0.00,,,0.00,40.000000,,2013-02-13 19:01:00,
2013-02-13 10:11:00,20.0,18.0,-100.00,WNW,299,3.0,6.0,93,0.00,,,0.00,40.000000,,2013-02-13 19:11:00,
2013-02-13 10:21:00,20.0,18.0,-100.00,WNW,299,3.0,6.0,93,0.00,,,0.00,40.000000,,2013-02-13 19:21:00,
2013-02-13 10:31:00,20.0,18.0,-100.00,WNW,299,3.0,6.0,93,0.00,,,0.00,40.000000,,2013-02-13 19:31:00,
2013-02-13 10:52:00,20.0,18.0,-100.00,West,281,5.0,9.0,92,0.00,,,0.00,75.000000,,2013-02-13 19:52:00,
2013-02-13 11:02:00,20.0,18.0,-100.00,West,281,5.0,9.0,92,0.00,,,0.00,75.000000,,2013-02-13 20:02:00,
2013-02-13 11:11:00,20.0,18.0,-100.00,West,281,5.0,9.0,92,0.00,,,0.00,75.000000,,2013-02-13 20:11:00,
2013-02-13 11:21:00,20.0,18.0,-100.00,West,281,5.0,9.0,92,0.00,,,0.00,75.000000,,2013-02-13 20:21:00,
2013-02-13 11:31:00,20.0,18.0,-100.00,West,281,5.0,9.0,92,0.00,,,0.00,75.000000,,2013-02-13 20:31:00,
2013-02-13 11:52:00,20.0,18.0,-100.00,NW,311,4.0,8.0,93,0.00,,,0.00,136.000000,,2013-02-13 20:52:00,
2013-02-13 12:01:00,20.0,18.0,-100.00,NW,311,4.0,8.0,93,0.00,,,0.00,136.000000,,2013-02-13 21:01:00,
2013-02-13 12:11:00,20.0,18.0,-100.00,NW,311,4.0,8.0,93,0.00,,,0.00,136.000000,,2013-02-13 21:11:00,
2013-02-13 12:21:00,20.0,18.0,-100.00,NW,311,4.0,8.0,93,0.00,,,0.00,136.000000,,2013-02-13 21:21:00,
2013-02-13 12:31:00,20.0,18.0,-100.00,NW,311,4.0,8.0,93,0.00,,,0.00,136.000000,,2013-02-13 21:31:00,
2013-02-13 12:52:00,21.0,19.0,-100.00,NNW,336,2.0,6.0,93,0.00,,,0.00,217.000000,,2013-02-13 21:52:00,
2013-02-13 13:02:00,21.0,19.0,-100.00,NNW,336,2.0,6.0,93,0.00,,,0.00,217.000000,,2013-02-13 22:02:00,
2013-02-13 13:11:00,21.0,19.0,-100.00,NNW,336,2.0,6.0,93,0.00,,,0.00,217.000000,,2013-02-13 22:11:00,
2013-02-13 13:21:00,21.0,19.0,-100.00,NNW,336,2.0,6.0,93,0.00,,,0.00,217.000000,,2013-02-13 22:21:00,
2013-02-13 13:31:00,21.0,19.0,-100.00,NNW,336,2.0,6.0,93,0.00,,,0.00,217.000000,,2013-02-13 22:31:00,
2013-02-13 13:52:00,22.0,19.0,-100.00,SSW,211,2.0,7.0,89,0.00,,,0.00,233.000000,,2013-02-13 22:52:00,
2013-02-13 14:01:00,22.0,19.0,-100.00,SSW,211,2.0,7.0,89,0.00,,,0.00,233.000000,,2013-02-13 23:01:00,
2013-02-13 14:11:00,22.0,19.0,-100.00,SSW,211,2.0,7.0,89,0.00,,,0.00,233.000000,,2013-02-13 23:11:00,
2013-02-13 14:21:00,22.0,19.0,-100.00,SSW,211,2.0,7.0,89,0.00,,,0.00,233.000000,,2013-02-13 23:21:00,
2013-02-13 14:31:00,22.0,19.0,-100.00,SSW,211,2.0,7.0,89,0.00,,,0.00,233.000000,,2013-02-13 23:31:00,
2013-02-13 14:52:00,23.0,21.0,-100.00,WSW,245,2.0,3.0,90,0.00,,,0.00,146.000000,,2013-02-13 23:52:00,
2013-02-13 15:01:00,23.0,21.0,-100.00,WSW,245,2.0,3.0,90,0.00,,,0.00,146.000000,,2013-02-14 00:01:00,
2013-02-13 15:11:00,23.0,21.0,-100.00,WSW,245,2.0,3.0,90,0.00,,,0.00,146.000000,,2013-02-14 00:11:00,
2013-02-13 15:21:00,23.0,21.0,-100.00,WSW,245,2.0,3.0,90,0.00,,,0.00,146.000000,,2013-02-14 00:21:00,
2013-02-13 15:31:00,23.0,21.0,-100.00,WSW,245,2.0,3.0,90,0.00,,,0.00,146.000000,,2013-02-14 00:31:00,
2013-02-13 15:52:00,21.0,19.0,-100.00,NW,312,3.0,6.0,91,0.00,,,0.00,94.000000,,2013-02-14 00:52:00,
2013-02-13 16:01:00,21.0,19.0,-100.00,NW,312,3.0,6.0,91,0.00,,,0.00,94.000000,,2013-02-14 01:01:00,
2013-02-13 16:11:00,21.0,19.0,-100.00,NW,312,3.0,6.0,91,0.00,,,0.00,94.000000,,2013-02-14 01:11:00,
2013-02-13 16:21:00,21.0,19.0,-100.00,NW,312,3.0,6.0,91,0.00,,,0.00,94.000000,,2013-02-14 01:21:00,
2013-02-13 16:31:00,21.0,19.0,-100.00,NW,312,3.0,6.0,91,0.00,,,0.00,94.000000,,2013-02-14 01:31:00,
2013-02-13 16:51:00,21.0,19.0,-100.00,NNW,333,5.0,8.0,90,0.00,,,0.00,41.000000,,2013-02-14 01:51:00,
2013-02-13 17:01:00,21.0,19.0,-100.00,NNW,333,5.0,8.0,90,0.00,,,0.00,41.000000,,2013-02-14 02:01:00,
2013-02-13 17:11:00,21.0,19.0,-100.00,NNW,333,5.0,8.0,90,0.00,,,0.00,41.000000,,2013-02-14 02:11:00,
2013-02-13 17:21:00,21.0,19.0,-100.00,NNW,333,5.0,8.0,90,0.00,,,0.00,41.000000,,2013-02-14 02:21:00,
2013-02-13 17:31:00,21.0,19.0,-100.00,NNW,333,5.0,8.0,90,0.00,,,0.00,41.000000,,2013-02-14 02:31:00,
2013-02-13 18:02:00,21.0,19.0,-100.00,WNW,294,5.0,8.0,90,0.00,,,0.00,3.000000,,2013-02-14 03:02:00,
2013-02-13 18:11:00,21.0,19.0,-100.00,WNW,294,5.0,8.0,90,0.00,,,0.00,3.000000,,2013-02-14 03:11:00,
2013-02-13 18:21:00,21.0,19.0,-100.00,WNW,294,5.0,8.0,90,0.00,,,0.00,3.000000,,2013-02-14 03:21:00,
2013-02-13 18:31:00,21.0,19.0,-100.00,WNW,294,5.0,8.0,90,0.00,,,0.00,3.000000,,2013-02-14 03:31:00,
2013-02-13 18:52:00,21.0,19.0,-100.00,NW,316,4.0,7.0,91,0.00,,,0.00,0.000000,,2013-02-14 03:52:00,
2013-02-13 19:01:00,21.0,19.0,-100.00,NW,316,4.0,7.0,91,0.00,,,0.00,0.000000,,2013-02-14 04:01:00,
2013-02-13 19:11:00,21.0,19.0,-100.00,NW,316,4.0,7.0,91,0.00,,,0.00,0.000000,,2013-02-14 04:11:00,
2013-02-13 19:21:00,21.0,19.0,-100.00,NW,316,4.0,7.0,91,0.00,,,0.00,0.000000,,2013-02-14 04:21:00,
2013-02-13 19:31:00,21.0,19.0,-100.00,NW,316,4.0,7.0,91,0.00,,,0.00,0.000000,,2013-02-14 04:31:00,
2013-02-13 19:52:00,21.0,19.0,-100.00,NNW,341,4.0,8.0,92,0.00,,,0.00,0.000000,,2013-02-14 04:52:00,
2013-02-13 20:01:00,21.0,19.0,-100.00,NNW,341,4.0,8.0,92,0.00,,,0.00,0.000000,,2013-02-14 05:01:00,
2013-02-13 20:11:00,21.0,19.0,-100.00,NNW,341,4.0,8.0,92,0.00,,,0.00,0.000000,,2013-02-14 05:11:00,
2013-02-13 20:21:00,21.0,19.0,-100.00,NNW,341,4.0,8.0,92,0.00,,,0.00,0.000000,,2013-02-14 05:21:00,
2013-02-13 20:31:00,21.0,19.0,-100.00,NNW,341,4.0,8.0,92,0.00,,,0.00,0.000000,,2013-02-14 05:31:00,
2013-02-13 20:52:00,21.0,19.0,-100.00,North,354,4.0,9.0,92,0.00,,,0.00,0.000000,,2013-02-14 05:52:00,
2013-02-13 21:02:00,21.0,19.0,-100.00,North,354,4.0,9.0,92,0.00,,,0.00,0.000000,,2013-02-14 06:02:00,
2013-02-13 21:11:00,21.0,19.0,-100.00,North,354,4.0,9.0,92,0.00,,,0.00,0.000000,,2013-02-14 06:11:00,
2013-02-13 21:21:00,21.0,19.0,-100.00,North,354,4.0,9.0,92,0.00,,,0.00,0.000000,,2013-02-14 06:21:00,
2013-02-13 21:31:00,21.0,19.0,-100.00,North,354,4.0,9.0,92,0.00,,,0.00,0.000000,,2013-02-14 06:31:00,
2013-02-13 21:52:00,22.0,21.0,-100.00,NNE,20,7.0,13.0,94,0.00,,,0.00,0.000000,,2013-02-14 06:52:00,
2013-02-13 22:01:00,22.0,21.0,-100.00,NNE,20,7.0,13.0,94,0.00,,,0.00,0.000000,,2013-02-14 07:01:00,
2013-02-13 22:11:00,22.0,21.0,-100.00,NNE,20,7.0,13.0,94,0.00,,,0.00,0.000000,,2013-02-14 07:11:00,
2013-02-13 22:21:00,22.0,21.0,-100.00,NNE,20,7.0,13.0,94,0.00,,,0.00,0.000000,,2013-02-14 07:21:00,
2013-02-13 22:31:00,22.0,21.0,-100.00,NNE,20,7.0,13.0,94,0.00,,,0.00,0.000000,,2013-02-14 07:31:00,
2013-02-13 22:52:00,20.0,19.0,-100.00,NNW,340,5.0,9.0,94,0.00,,,0.00,0.000000,,2013-02-14 07:52:00,
2013-02-13 23:01:00,20.0,19.0,-100.00,NNW,340,5.0,9.0,94,0.00,,,0.00,0.000000,,2013-02-14 08:01:00,
2013-02-13 23:11:00,20.0,19.0,-100.00,NNW,340,5.0,9.0,94,0.00,,,0.00,0.000000,,2013-02-14 08:11:00,
2013-02-13 23:21:00,20.0,19.0,-100.00,NNW,340,5.0,9.0,94,0.00,,,0.00,0.000000,,2013-02-14 08:21:00,
2013-02-13 23:31:00,20.0,19.0,-100.00,NNW,340,5.0,9.0,94,0.00,,,0.00,0.000000,,2013-02-14 08:31:00,
2013-02-13 23:52:00,19.0,18.0,-100.00,North,353,4.0,8.0,94,0.00,,,0.00,0.000000,,2013-02-14 08:52:00,